createdAt,value
2022-08-30T00:02:14.370Z,3.97
2022-08-30T00:18:04.826Z,4.93
2022-08-30T00:20:35.303Z,4.72
2022-08-30T00:23:10.114Z,4.45
2022-08-30T00:25:37.274Z,4.22
2022-08-30T00:28:17.241Z,5.13
2022-08-30T00:30:57.660Z,4.68
2022-08-30T00:33:34.847Z,4.50
2022-08-30T00:36:09.846Z,4.80
2022-08-30T00:38:36.928Z,4.53
2022-08-30T00:41:08.536Z,4.65
2022-08-30T00:43:39.703Z,4.40
2022-08-30T00:46:21.677Z,4.28
2022-08-30T00:49:04.804Z,4.20
2022-08-30T00:51:31.923Z,4.10
2022-08-30T00:54:08.216Z,4.55
2022-08-30T00:57:02.201Z,4.13
2022-08-30T01:03:35.914Z,3.47
2022-08-30T01:09:20.756Z,4.22
2022-08-30T01:11:55.618Z,4.40
2022-08-30T01:14:40.718Z,3.70
2022-08-30T01:17:48.351Z,4.00
2022-08-30T01:20:29.093Z,3.67
2022-08-30T01:23:10.258Z,3.88
2022-08-30T01:25:41.754Z,3.78
2022-08-30T01:28:26.061Z,3.92
2022-08-30T01:31:30.547Z,4.10
2022-08-30T01:34:29.784Z,4.18
2022-08-30T01:37:02.032Z,3.30
2022-08-30T01:39:33.919Z,3.70
2022-08-30T01:42:09.365Z,3.97
2022-08-30T01:44:36.231Z,3.30
2022-08-30T01:47:21.416Z,4.80
2022-08-30T01:49:52.092Z,3.63
2022-08-30T01:52:19.507Z,3.10
2022-08-30T01:54:59.669Z,3.33
2022-08-30T01:57:31.326Z,3.10
2022-08-30T02:03:05.198Z,3.45
2022-08-30T02:07:20.375Z,3.08
2022-08-30T02:09:31.394Z,2.90
2022-08-30T02:11:59.673Z,2.90
2022-08-30T02:14:26.537Z,2.80
2022-08-30T02:16:58.926Z,3.40
2022-08-30T02:19:51.397Z,2.70
2022-08-30T02:22:35.297Z,2.90
2022-08-30T02:25:06.221Z,2.78
2022-08-30T02:27:48.754Z,3.17
2022-08-30T02:30:32.506Z,3.05
2022-08-30T02:33:18.451Z,3.03
2022-08-30T02:36:09.844Z,3.20
2022-08-30T02:41:24.737Z,3.30
2022-08-30T02:43:58.824Z,3.55
2022-08-30T02:46:34.764Z,3.20
2022-08-30T02:49:33.259Z,3.35
2022-08-30T02:52:10.814Z,3.10
2022-08-30T02:54:40.614Z,3.20
2022-08-30T02:57:20.004Z,3.42
2022-08-30T02:59:57.421Z,3.30
2022-08-30T03:02:24.821Z,3.50
2022-08-30T03:04:59.131Z,3.00
2022-08-30T03:07:29.105Z,3.22
2022-08-30T03:10:04.170Z,3.20
2022-08-30T03:15:41.764Z,3.20
2022-08-30T03:20:41.613Z,3.35
2022-08-30T03:23:33.572Z,3.10
2022-08-30T03:26:03.263Z,3.92
2022-08-30T03:28:44.973Z,3.72
2022-08-30T03:31:13.498Z,3.40
2022-08-30T03:33:40.712Z,3.90
2022-08-30T03:36:10.874Z,3.72
2022-08-30T03:38:40.484Z,3.55
2022-08-30T03:41:10.607Z,3.22
2022-08-30T03:43:40.625Z,3.85
2022-08-30T03:46:37.175Z,3.50
2022-08-30T03:49:07.350Z,3.92
2022-08-30T03:52:02.102Z,4.13
2022-08-30T03:54:36.557Z,4.10
2022-08-30T03:57:19.659Z,4.15
2022-08-30T04:00:09.727Z,4.47
2022-08-30T04:02:58.874Z,4.32
2022-08-30T04:05:31.167Z,4.80
2022-08-30T04:08:35.814Z,4.40
2022-08-30T04:11:08.615Z,4.60
2022-08-30T04:14:00.352Z,4.25
2022-08-30T04:25:55.277Z,4.22
2022-08-30T04:28:25.721Z,4.03
2022-08-30T04:30:57.229Z,5.30
2022-08-30T04:36:42.693Z,4.53
2022-08-30T04:39:31.935Z,4.18
2022-08-30T04:50:37.395Z,4.25
2022-08-30T04:53:12.217Z,4.85
2022-08-30T04:55:43.220Z,4.68
2022-08-30T04:58:31.537Z,4.88
2022-08-30T05:01:44.505Z,4.30
2022-08-30T05:04:19.345Z,4.20
2022-08-30T05:06:46.461Z,4.47
2022-08-30T05:09:20.549Z,4.20
2022-08-30T05:11:49.827Z,4.40
2022-08-30T05:14:20.941Z,4.88
2022-08-30T05:16:52.203Z,4.30
2022-08-30T05:19:21.315Z,4.50
2022-08-30T05:21:50.124Z,4.68
2022-08-30T05:35:56.527Z,4.30
2022-08-30T05:38:18.746Z,4.40
2022-08-30T05:40:45.920Z,4.13
2022-08-30T05:43:15.335Z,3.97
2022-08-30T05:45:42.197Z,3.95
2022-08-30T05:48:09.447Z,3.80
2022-08-30T05:50:40.105Z,3.60
2022-08-30T05:53:13.088Z,4.45
2022-08-30T05:55:42.588Z,3.88
2022-08-30T05:58:09.457Z,3.80
2022-08-30T06:00:36.284Z,3.85
2022-08-30T06:03:03.140Z,3.47
2022-08-30T06:05:37.571Z,4.35
2022-08-30T06:08:35.443Z,3.60
2022-08-30T06:14:10.482Z,3.78
2022-08-30T06:16:47.907Z,3.72
2022-08-30T06:19:18.122Z,3.55
2022-08-30T06:21:53.658Z,3.28
2022-08-30T06:24:56.546Z,3.22
2022-08-30T06:30:44.321Z,3.05
2022-08-30T06:33:14.890Z,2.50
2022-08-30T06:42:47.326Z,2.53
2022-08-30T06:49:03.615Z,3.30
2022-08-30T06:54:45.431Z,2.58
2022-08-30T07:14:26.897Z,2.22
2022-08-30T07:16:39.411Z,1.95
2022-08-30T07:31:19.508Z,1.55
2022-08-30T07:43:59.758Z,1.50
2022-08-30T07:46:49.375Z,1.73
2022-08-30T07:52:25.073Z,1.60
2022-08-30T07:55:39.853Z,2.28
2022-08-30T08:01:05.770Z,1.90
2022-08-30T08:03:46.602Z,1.65
2022-08-30T08:06:40.712Z,2.05
2022-08-30T08:09:30.804Z,1.88
2022-08-30T08:15:06.689Z,1.75
2022-08-30T08:23:57.870Z,1.50
2022-08-30T08:38:20.788Z,1.13
2022-08-30T08:41:34.818Z,1.17
2022-08-30T08:44:30.195Z,1.13
2022-08-30T08:47:39.420Z,1.00
2022-08-30T08:53:46.665Z,0.85
2022-08-30T08:56:37.466Z,1.00
2022-08-30T09:02:41.354Z,0.98
2022-08-30T09:08:32.042Z,1.50
2022-08-30T09:11:19.027Z,1.20
2022-08-30T09:14:22.695Z,1.08
2022-08-30T09:17:27.813Z,1.10
2022-08-30T09:21:01.912Z,1.00
2022-08-30T09:23:58.389Z,1.20
2022-08-30T09:27:17.507Z,1.00
2022-08-30T09:30:07.869Z,1.10
2022-08-30T09:35:56.810Z,1.00
2022-08-30T09:38:45.287Z,1.13
2022-08-30T09:41:47.338Z,1.17
2022-08-30T09:47:26.153Z,1.13
2022-08-30T09:53:23.411Z,1.50
2022-08-30T09:56:22.997Z,1.20
2022-08-30T09:59:41.004Z,1.00
2022-08-30T10:13:28.091Z,1.00
2022-08-30T10:24:13.394Z,1.02
2022-08-30T10:30:19.994Z,0.90
2022-08-30T11:28:45.852Z,0.67
2022-08-30T11:31:49.955Z,0.70
2022-08-30T11:34:59.959Z,1.00
2022-08-30T13:06:17.140Z,0.82
2022-08-30T13:09:06.427Z,0.88
2022-08-30T14:04:28.952Z,0.73
2022-08-30T14:19:02.869Z,1.00
2022-08-30T14:21:51.145Z,1.10
2022-08-30T14:24:30.045Z,1.02
2022-08-30T14:27:23.079Z,1.05
2022-08-30T14:29:58.158Z,1.02
2022-08-30T14:35:35.461Z,0.90
2022-08-30T14:38:11.445Z,0.82
2022-08-30T14:44:13.772Z,0.90
2022-08-30T14:47:14.651Z,0.90
2022-08-30T14:53:37.898Z,1.15
2022-08-30T14:56:21.803Z,0.95
2022-08-30T14:59:13.351Z,1.08
2022-08-30T15:04:32.747Z,0.90
2022-08-30T15:07:10.572Z,0.80
2022-08-30T15:10:17.951Z,0.80
2022-08-30T15:16:51.261Z,0.80
2022-08-30T15:19:31.498Z,0.93
2022-08-30T15:22:08.975Z,1.00
2022-08-30T15:25:42.207Z,1.30
2022-08-30T15:28:35.714Z,0.98
2022-08-30T15:31:14.947Z,1.10
2022-08-30T15:34:07.646Z,1.17
2022-08-30T15:37:07.938Z,0.90
2022-08-30T15:40:19.794Z,0.93
2022-08-30T15:43:05.569Z,1.20
2022-08-30T15:49:18.371Z,1.00
2022-08-30T15:52:24.873Z,1.60
2022-08-30T15:58:27.203Z,0.80
2022-08-30T16:01:30.595Z,1.10
2022-08-30T16:06:56.930Z,1.70
2022-08-30T16:13:12.686Z,1.15
2022-08-30T16:15:47.160Z,1.25
2022-08-30T16:18:42.835Z,0.98
2022-08-30T16:21:29.523Z,0.93
2022-08-30T16:24:18.251Z,0.77
2022-08-30T16:26:50.332Z,0.98
2022-08-30T16:29:20.300Z,1.05
2022-08-30T16:31:55.589Z,1.00
2022-08-30T16:34:35.705Z,1.05
2022-08-30T16:37:19.437Z,1.30
2022-08-30T16:40:11.674Z,1.08
2022-08-30T16:45:28.624Z,1.27
2022-08-30T16:48:21.562Z,1.20
2022-08-30T16:50:50.402Z,1.40
2022-08-30T16:53:36.296Z,1.15
2022-08-30T16:56:23.803Z,1.25
2022-08-30T16:59:02.222Z,1.85
2022-08-30T17:01:34.671Z,2.00
2022-08-30T17:04:06.162Z,1.33
2022-08-30T17:06:38.284Z,1.35
2022-08-30T17:09:07.855Z,1.90
2022-08-30T17:11:36.157Z,1.40
2022-08-30T17:14:27.572Z,1.70
2022-08-30T17:17:03.562Z,1.50
2022-08-30T17:19:46.230Z,1.35
2022-08-30T17:22:15.128Z,1.55
2022-08-30T17:24:43.814Z,1.52
2022-08-30T17:27:15.464Z,1.50
2022-08-30T17:29:45.781Z,1.30
2022-08-30T17:32:17.081Z,1.45
2022-08-30T17:34:44.454Z,1.27
2022-08-30T17:37:15.014Z,1.77
2022-08-30T17:39:41.912Z,1.45
2022-08-30T17:42:12.244Z,2.75
2022-08-30T17:44:42.236Z,1.73
2022-08-30T17:47:09.554Z,1.35
2022-08-30T17:49:36.973Z,1.20
2022-08-30T17:52:04.464Z,1.05
2022-08-30T17:54:34.602Z,0.90
2022-08-30T17:57:02.101Z,1.05
2022-08-30T17:59:32.704Z,1.15
2022-08-30T18:02:01.168Z,1.08
2022-08-30T18:04:31.758Z,1.05
2022-08-30T18:07:01.458Z,0.90
2022-08-30T18:09:33.684Z,1.00
2022-08-30T18:12:02.593Z,0.95
2022-08-30T18:14:30.013Z,1.13
2022-08-30T18:16:57.573Z,1.00
2022-08-30T18:19:45.858Z,0.85
2022-08-30T18:22:14.193Z,0.80
2022-08-30T18:24:41.097Z,0.90
2022-08-30T18:27:09.516Z,1.10
2022-08-30T18:29:38.251Z,1.00
2022-08-30T18:32:05.410Z,0.65
2022-08-30T18:34:33.163Z,0.73
2022-08-30T18:37:00.267Z,0.80
2022-08-30T18:39:28.453Z,0.90
2022-08-30T18:42:01.336Z,0.90
2022-08-30T18:44:33.780Z,0.80
2022-08-30T18:47:03.829Z,0.80
2022-08-30T18:49:34.078Z,0.80
2022-08-30T18:52:01.072Z,1.30
2022-08-30T18:54:28.278Z,0.90
2022-08-30T18:57:01.200Z,0.75
2022-08-30T18:59:36.629Z,0.85
2022-08-30T19:02:10.200Z,0.90
2022-08-30T19:04:40.931Z,0.80
2022-08-30T19:07:11.540Z,0.80
2022-08-30T19:09:41.826Z,0.73
2022-08-30T19:12:14.069Z,0.80
2022-08-30T19:14:42.698Z,0.60
2022-08-30T19:17:09.680Z,0.77
2022-08-30T19:19:49.265Z,0.90
2022-08-30T19:22:22.329Z,1.20
2022-08-30T19:24:51.304Z,1.00
2022-08-30T19:27:21.586Z,0.80
2022-08-30T19:30:21.589Z,0.98
2022-08-30T19:32:51.661Z,1.13
2022-08-30T19:35:20.046Z,1.00
2022-08-30T19:37:49.237Z,1.08
2022-08-30T19:40:19.319Z,0.88
2022-08-30T19:42:49.113Z,1.08
2022-08-30T19:45:33.905Z,1.10
2022-08-30T19:48:07.101Z,1.13
2022-08-30T19:50:42.724Z,0.85
2022-08-30T19:53:33.058Z,1.08
2022-08-30T19:56:00.353Z,0.85
2022-08-30T19:58:40.461Z,0.95
2022-08-30T20:01:36.109Z,0.85
2022-08-30T20:04:10.185Z,1.00
2022-08-30T20:12:45.183Z,1.77
2022-08-30T20:15:19.534Z,1.33
2022-08-30T20:18:03.112Z,1.40
2022-08-30T20:20:49.410Z,1.30
2022-08-30T20:23:21.021Z,1.50
2022-08-30T20:25:50.267Z,1.55
2022-08-30T20:28:19.436Z,1.30
2022-08-30T20:30:49.105Z,1.35
2022-08-30T20:34:18.498Z,1.65
2022-08-30T20:36:43.746Z,1.10
2022-08-30T20:40:20.496Z,1.30
2022-08-30T20:43:07.525Z,1.30
2022-08-30T20:45:39.896Z,1.00
2022-08-30T20:51:39.498Z,1.20
2022-08-30T20:54:21.720Z,1.20
2022-08-30T20:56:57.154Z,1.10
2022-08-30T20:59:48.066Z,1.02
2022-08-30T21:02:21.429Z,0.98
2022-08-30T21:04:51.333Z,1.00
2022-08-30T21:07:36.402Z,1.10
2022-08-30T21:10:08.413Z,1.35
2022-08-30T21:13:25.956Z,1.00
2022-08-30T21:16:24.484Z,0.90
2022-08-30T21:19:13.934Z,1.23
2022-08-30T21:26:09.059Z,0.75
2022-08-30T21:28:41.074Z,1.05
2022-08-30T21:31:29.861Z,1.00
2022-08-30T21:40:39.428Z,0.85
2022-08-30T21:43:34.471Z,0.73
2022-08-30T21:52:51.090Z,0.85
2022-08-30T21:55:30.498Z,1.00
2022-08-30T21:58:03.771Z,1.08
2022-08-30T22:00:51.660Z,1.08
2022-08-30T22:03:23.154Z,1.05
2022-08-30T22:08:37.115Z,0.80
2022-08-30T22:11:27.357Z,0.80
2022-08-30T22:14:37.735Z,1.20
2022-08-30T22:23:15.928Z,0.80
2022-08-30T22:26:14.782Z,0.77
2022-08-30T22:31:41.580Z,0.82
2022-08-30T22:34:40.207Z,0.70
2022-08-30T22:37:20.196Z,0.90
2022-08-30T22:42:53.792Z,0.63
2022-08-30T22:45:40.569Z,0.52
2022-08-30T22:48:18.274Z,0.80
2022-08-30T22:50:51.803Z,0.80
2022-08-30T22:53:51.939Z,0.60
2022-08-30T22:59:42.565Z,0.65
2022-08-30T23:02:44.073Z,0.52
2022-08-30T23:05:40.717Z,0.60
2022-08-30T23:08:29.399Z,0.40
2022-08-30T23:14:24.692Z,0.50
2022-08-30T23:17:41.610Z,0.50
2022-08-30T23:20:16.504Z,0.75
2022-08-30T23:33:11.574Z,0.63
2022-08-30T23:36:18.325Z,0.63
2022-08-30T23:49:24.026Z,0.40
2022-08-30T23:55:19.997Z,0.73
